sensor_id;sensor_type;location;lat;lon;timestamp;temperature;humidity
2873;DHT22;1444;49.166;7.312;2024-03-23T00:55:41;11.80;99.90
2873;DHT22;1444;49.166;7.312;2024-03-23T00:58:06;12.00;99.90
2873;DHT22;1444;49.166;7.312;2024-03-23T01:00:32;12.10;99.90
2873;DHT22;1444;49.166;7.312;2024-03-23T01:02:58;12.10;99.90
2873;DHT22;1444;49.166;7.312;2024-03-23T01:05:24;12.30;99.90
2873;DHT22;1444;49.166;7.312;2024-03-23T01:07:50;12.40;99.90
2873;DHT22;1444;49.166;7.312;2024-03-23T01:10:17;12.60;99.90
2873;DHT22;1444;49.166;7.312;2024-03-23T01:12:43;12.70;99.90
2873;DHT22;1444;49.166;7.312;2024-03-23T01:15:09;12.70;99.90
2873;DHT22;1444;49.166;7.312;2024-03-23T01:17:35;12.70;99.90
2873;DHT22;1444;49.166;7.312;2024-03-23T01:20:01;12.80;99.90
2873;DHT22;1444;49.166;7.312;2024-03-23T01:22:28;12.70;99.90
2873;DHT22;1444;49.166;7.312;2024-03-23T01:24:54;12.70;99.90
2873;DHT22;1444;49.166;7.312;2024-03-23T01:27:20;12.70;99.90
2873;DHT22;1444;49.166;7.312;2024-03-23T01:29:46;12.60;99.90
2873;DHT22;1444;49.166;7.312;2024-03-23T01:32:13;12.60;99.90
2873;DHT22;1444;49.166;7.312;2024-03-23T01:34:38;12.50;99.90
2873;DHT22;1444;49.166;7.312;2024-03-23T01:37:04;12.50;99.90
2873;DHT22;1444;49.166;7.312;2024-03-23T01:39:30;12.50;99.90
2873;DHT22;1444;49.166;7.312;2024-03-23T01:41:56;12.40;99.90
2873;DHT22;1444;49.166;7.312;2024-03-23T01:44:23;12.40;99.90
2873;DHT22;1444;49.166;7.312;2024-03-23T01:46:49;12.40;99.90
2873;DHT22;1444;49.166;7.312;2024-03-23T01:49:15;12.40;99.90
2873;DHT22;1444;49.166;7.312;2024-03-23T01:51:42;12.50;99.90
2873;DHT22;1444;49.166;7.312;2024-03-23T01:54:09;12.50;99.90
2873;DHT22;1444;49.166;7.312;2024-03-23T01:56:36;12.60;99.90
2873;DHT22;1444;49.166;7.312;2024-03-23T01:59:02;12.60;99.90
2873;DHT22;1444;49.166;7.312;2024-03-23T02:01:28;12.50;99.90
2873;DHT22;1444;49.166;7.312;2024-03-23T02:03:54;12.50;99.90
2873;DHT22;1444;49.166;7.312;2024-03-23T02:06:20;12.50;99.90
2873;DHT22;1444;49.166;7.312;2024-03-23T02:08:47;12.50;99.90
2873;DHT22;1444;49.166;7.312;2024-03-23T02:11:13;12.50;99.90
2873;DHT22;1444;49.166;7.312;2024-03-23T02:13:39;12.40;99.90
2873;DHT22;1444;49.166;7.312;2024-03-23T02:16:06;12.50;99.90
2873;DHT22;1444;49.166;7.312;2024-03-23T02:18:32;12.40;99.90
2873;DHT22;1444;49.166;7.312;2024-03-23T02:20:58;12.40;99.90
2873;DHT22;1444;49.166;7.312;2024-03-23T02:23:25;12.40;99.90
2873;DHT22;1444;49.166;7.312;2024-03-23T02:25:51;12.30;99.90
2873;DHT22;1444;49.166;7.312;2024-03-23T02:28:18;12.30;99.90
2873;DHT22;1444;49.166;7.312;2024-03-23T02:30:44;12.30;99.90
2873;DHT22;1444;49.166;7.312;2024-03-23T02:33:10;12.20;99.90
2873;DHT22;1444;49.166;7.312;2024-03-23T02:35:36;12.20;99.90
2873;DHT22;1444;49.166;7.312;2024-03-23T02:38:02;12.20;99.90
2873;DHT22;1444;49.166;7.312;2024-03-23T02:40:29;12.20;99.90
2873;DHT22;1444;49.166;7.312;2024-03-23T02:42:55;12.20;99.90
2873;DHT22;1444;49.166;7.312;2024-03-23T02:45:21;12.10;99.90
2873;DHT22;1444;49.166;7.312;2024-03-23T02:47:47;12.10;99.90
2873;DHT22;1444;49.166;7.312;2024-03-23T02:50:20;12.10;99.90
2873;DHT22;1444;49.166;7.312;2024-03-23T02:52:46;12.00;99.90
2873;DHT22;1444;49.166;7.312;2024-03-23T02:55:12;12.00;99.90
2873;DHT22;1444;49.166;7.312;2024-03-23T02:57:39;12.00;99.90
2873;DHT22;1444;49.166;7.312;2024-03-23T03:00:06;11.90;99.90
2873;DHT22;1444;49.166;7.312;2024-03-23T03:02:33;12.00;99.90
2873;DHT22;1444;49.166;7.312;2024-03-23T03:04:59;11.90;99.90
2873;DHT22;1444;49.166;7.312;2024-03-23T03:07:25;11.90;99.90
2873;DHT22;1444;49.166;7.312;2024-03-23T03:09:51;11.90;99.90
2873;DHT22;1444;49.166;7.312;2024-03-23T03:12:17;11.90;99.90
2873;DHT22;1444;49.166;7.312;2024-03-23T03:14:44;11.80;99.90
2873;DHT22;1444;49.166;7.312;2024-03-23T03:17:09;11.80;99.90
2873;DHT22;1444;49.166;7.312;2024-03-23T03:19:35;11.70;99.90
2873;DHT22;1444;49.166;7.312;2024-03-23T03:22:01;11.70;99.90
2873;DHT22;1444;49.166;7.312;2024-03-23T03:24:28;11.70;99.90
2873;DHT22;1444;49.166;7.312;2024-03-23T03:26:54;11.60;99.90
2873;DHT22;1444;49.166;7.312;2024-03-23T03:29:20;11.60;99.90
2873;DHT22;1444;49.166;7.312;2024-03-23T03:31:47;11.60;99.90
2873;DHT22;1444;49.166;7.312;2024-03-23T03:34:13;11.50;99.90
2873;DHT22;1444;49.166;7.312;2024-03-23T03:36:39;11.50;99.90
2873;DHT22;1444;49.166;7.312;2024-03-23T03:39:05;11.50;99.90
2873;DHT22;1444;49.166;7.312;2024-03-23T03:41:32;11.50;99.90
2873;DHT22;1444;49.166;7.312;2024-03-23T03:43:58;11.50;99.90
2873;DHT22;1444;49.166;7.312;2024-03-23T03:46:27;11.40;99.90
2873;DHT22;1444;49.166;7.312;2024-03-23T03:48:55;11.30;99.90
2873;DHT22;1444;49.166;7.312;2024-03-23T03:51:20;11.30;99.90
2873;DHT22;1444;49.166;7.312;2024-03-23T03:53:47;11.20;99.90
2873;DHT22;1444;49.166;7.312;2024-03-23T03:56:12;11.30;99.90
2873;DHT22;1444;49.166;7.312;2024-03-23T03:58:38;11.20;99.90
2873;DHT22;1444;49.166;7.312;2024-03-23T04:01:05;11.20;99.90
2873;DHT22;1444;49.166;7.312;2024-03-23T04:03:31;11.10;99.90
2873;DHT22;1444;49.166;7.312;2024-03-23T04:05:57;11.00;99.90
2873;DHT22;1444;49.166;7.312;2024-03-23T04:08:24;10.90;99.90
2873;DHT22;1444;49.166;7.312;2024-03-23T04:10:50;10.90;99.90
2873;DHT22;1444;49.166;7.312;2024-03-23T04:13:16;10.90;99.90
2873;DHT22;1444;49.166;7.312;2024-03-23T04:15:42;10.80;99.90
2873;DHT22;1444;49.166;7.312;2024-03-23T04:18:08;10.80;99.90
2873;DHT22;1444;49.166;7.312;2024-03-23T04:20:34;10.80;99.90
2873;DHT22;1444;49.166;7.312;2024-03-23T04:23:01;10.70;99.90
2873;DHT22;1444;49.166;7.312;2024-03-23T04:25:26;10.70;99.90
2873;DHT22;1444;49.166;7.312;2024-03-23T04:27:53;10.60;99.90
2873;DHT22;1444;49.166;7.312;2024-03-23T04:30:18;10.60;99.90
2873;DHT22;1444;49.166;7.312;2024-03-23T04:32:45;10.50;99.90
2873;DHT22;1444;49.166;7.312;2024-03-23T04:35:11;10.50;99.90
2873;DHT22;1444;49.166;7.312;2024-03-23T04:40:07;10.40;99.90
2873;DHT22;1444;49.166;7.312;2024-03-23T04:42:34;10.40;99.90
2873;DHT22;1444;49.166;7.312;2024-03-23T04:45:00;10.30;99.90
2873;DHT22;1444;49.166;7.312;2024-03-23T04:47:28;10.30;99.90
2873;DHT22;1444;49.166;7.312;2024-03-23T04:49:54;10.30;99.90
2873;DHT22;1444;49.166;7.312;2024-03-23T04:52:21;10.30;99.90
2873;DHT22;1444;49.166;7.312;2024-03-23T04:54:47;10.20;99.90
2873;DHT22;1444;49.166;7.312;2024-03-23T04:57:13;10.30;99.90
2873;DHT22;1444;49.166;7.312;2024-03-23T04:59:39;10.30;99.90
2873;DHT22;1444;49.166;7.312;2024-03-23T05:02:05;10.30;99.90
2873;DHT22;1444;49.166;7.312;2024-03-23T05:04:32;10.20;99.90
2873;DHT22;1444;49.166;7.312;2024-03-23T05:06:58;10.20;99.90
2873;DHT22;1444;49.166;7.312;2024-03-23T05:09:24;10.20;99.90
2873;DHT22;1444;49.166;7.312;2024-03-23T05:11:50;10.20;99.90
2873;DHT22;1444;49.166;7.312;2024-03-23T05:14:17;10.20;99.90
2873;DHT22;1444;49.166;7.312;2024-03-23T05:16:42;10.10;99.90
2873;DHT22;1444;49.166;7.312;2024-03-23T05:19:09;10.00;99.90
2873;DHT22;1444;49.166;7.312;2024-03-23T05:21:34;9.90;99.90
2873;DHT22;1444;49.166;7.312;2024-03-23T05:24:00;9.90;99.90
2873;DHT22;1444;49.166;7.312;2024-03-23T05:26:26;9.90;99.90
2873;DHT22;1444;49.166;7.312;2024-03-23T05:28:52;9.80;99.90
2873;DHT22;1444;49.166;7.312;2024-03-23T05:31:26;9.80;99.90
2873;DHT22;1444;49.166;7.312;2024-03-23T05:33:52;9.70;99.90
2873;DHT22;1444;49.166;7.312;2024-03-23T05:36:18;9.70;99.90
2873;DHT22;1444;49.166;7.312;2024-03-23T05:38:44;9.70;99.90
2873;DHT22;1444;49.166;7.312;2024-03-23T05:41:10;9.70;99.90
2873;DHT22;1444;49.166;7.312;2024-03-23T05:43:36;9.80;99.90
2873;DHT22;1444;49.166;7.312;2024-03-23T05:46:03;9.80;99.90
2873;DHT22;1444;49.166;7.312;2024-03-23T05:48:30;9.80;99.90
2873;DHT22;1444;49.166;7.312;2024-03-23T05:50:57;9.70;99.90
2873;DHT22;1444;49.166;7.312;2024-03-23T05:53:23;9.70;99.90
2873;DHT22;1444;49.166;7.312;2024-03-23T05:55:50;9.80;99.90
2873;DHT22;1444;49.166;7.312;2024-03-23T05:58:17;9.80;99.90
2873;DHT22;1444;49.166;7.312;2024-03-23T06:00:44;9.70;99.90
2873;DHT22;1444;49.166;7.312;2024-03-23T06:03:10;9.80;99.90
2873;DHT22;1444;49.166;7.312;2024-03-23T06:05:37;9.70;99.90
2873;DHT22;1444;49.166;7.312;2024-03-23T06:08:03;9.50;99.90
2873;DHT22;1444;49.166;7.312;2024-03-23T06:10:30;9.50;99.90
2873;DHT22;1444;49.166;7.312;2024-03-23T06:12:56;9.40;99.90
2873;DHT22;1444;49.166;7.312;2024-03-23T06:15:22;9.40;99.90
2873;DHT22;1444;49.166;7.312;2024-03-23T06:17:48;9.30;99.90
2873;DHT22;1444;49.166;7.312;2024-03-23T06:20:14;9.30;99.90
2873;DHT22;1444;49.166;7.312;2024-03-23T06:22:41;9.40;99.90
2873;DHT22;1444;49.166;7.312;2024-03-23T06:25:08;9.40;99.90
2873;DHT22;1444;49.166;7.312;2024-03-23T06:27:34;9.40;99.90
2873;DHT22;1444;49.166;7.312;2024-03-23T06:30:00;9.40;99.90
2873;DHT22;1444;49.166;7.312;2024-03-23T06:32:27;9.30;99.90
2873;DHT22;1444;49.166;7.312;2024-03-23T06:34:53;9.40;99.90
2873;DHT22;1444;49.166;7.312;2024-03-23T06:37:19;9.40;99.90
2873;DHT22;1444;49.166;7.312;2024-03-23T06:39:46;9.40;99.90
2873;DHT22;1444;49.166;7.312;2024-03-23T06:42:12;9.50;99.90
2873;DHT22;1444;49.166;7.312;2024-03-23T06:44:38;9.50;99.90
2873;DHT22;1444;49.166;7.312;2024-03-23T06:47:05;9.70;99.90
2873;DHT22;1444;49.166;7.312;2024-03-23T06:49:31;9.80;99.90
2873;DHT22;1444;49.166;7.312;2024-03-23T06:51:56;9.90;99.90
2873;DHT22;1444;49.166;7.312;2024-03-23T06:54:24;9.90;99.90
2873;DHT22;1444;49.166;7.312;2024-03-23T06:56:51;10.00;99.70
2873;DHT22;1444;49.166;7.312;2024-03-23T06:59:17;10.50;99.60
2873;DHT22;1444;49.166;7.312;2024-03-23T07:01:43;11.30;98.40
2873;DHT22;1444;49.166;7.312;2024-03-23T07:04:09;11.90;98.70
2873;DHT22;1444;49.166;7.312;2024-03-23T07:06:42;12.50;97.30
2873;DHT22;1444;49.166;7.312;2024-03-23T07:09:09;13.10;95.80
2873;DHT22;1444;49.166;7.312;2024-03-23T07:11:34;13.20;95.40
2873;DHT22;1444;49.166;7.312;2024-03-23T07:14:01;13.70;95.40
2873;DHT22;1444;49.166;7.312;2024-03-23T07:16:28;13.90;94.50
2873;DHT22;1444;49.166;7.312;2024-03-23T07:18:54;13.70;93.90
2873;DHT22;1444;49.166;7.312;2024-03-23T07:21:21;13.70;94.20
2873;DHT22;1444;49.166;7.312;2024-03-23T07:23:47;13.80;93.90
2873;DHT22;1444;49.166;7.312;2024-03-23T07:26:13;13.90;93.70
2873;DHT22;1444;49.166;7.312;2024-03-23T07:28:39;13.70;93.90
2873;DHT22;1444;49.166;7.312;2024-03-23T07:31:11;13.90;93.70
2873;DHT22;1444;49.166;7.312;2024-03-23T07:33:41;13.70;92.50
2873;DHT22;1444;49.166;7.312;2024-03-23T07:36:07;13.90;93.90
2873;DHT22;1444;49.166;7.312;2024-03-23T07:38:33;14.20;93.30
2873;DHT22;1444;49.166;7.312;2024-03-23T07:41:05;14.30;92.30
2873;DHT22;1444;49.166;7.312;2024-03-23T07:43:32;13.70;90.80
2873;DHT22;1444;49.166;7.312;2024-03-23T07:45:58;13.20;91.30
2873;DHT22;1444;49.166;7.312;2024-03-23T07:48:25;12.80;91.90
2873;DHT22;1444;49.166;7.312;2024-03-23T07:50:59;11.90;92.50
2873;DHT22;1444;49.166;7.312;2024-03-23T07:53:25;11.70;93.10
2873;DHT22;1444;49.166;7.312;2024-03-23T07:55:55;11.50;93.00
2873;DHT22;1444;49.166;7.312;2024-03-23T07:58:21;11.10;93.90
2873;DHT22;1444;49.166;7.312;2024-03-23T08:00:47;10.90;94.10
2873;DHT22;1444;49.166;7.312;2024-03-23T08:03:13;10.50;93.50
2873;DHT22;1444;49.166;7.312;2024-03-23T08:05:43;10.40;94.30
2873;DHT22;1444;49.166;7.312;2024-03-23T08:08:09;10.40;94.80
2873;DHT22;1444;49.166;7.312;2024-03-23T08:10:35;10.30;95.50
2873;DHT22;1444;49.166;7.312;2024-03-23T08:13:01;10.30;94.80
2873;DHT22;1444;49.166;7.312;2024-03-23T08:15:27;10.20;94.80
2873;DHT22;1444;49.166;7.312;2024-03-23T08:20:19;10.00;95.80
2873;DHT22;1444;49.166;7.312;2024-03-23T08:22:46;9.90;96.10
2873;DHT22;1444;49.166;7.312;2024-03-23T08:25:11;9.70;97.00
2873;DHT22;1444;49.166;7.312;2024-03-23T08:27:38;9.50;97.10
2873;DHT22;1444;49.166;7.312;2024-03-23T08:30:04;9.50;97.40
2873;DHT22;1444;49.166;7.312;2024-03-23T08:32:31;9.50;98.60
2873;DHT22;1444;49.166;7.312;2024-03-23T08:34:56;9.30;98.50
2873;DHT22;1444;49.166;7.312;2024-03-23T08:37:22;9.00;98.90
2873;DHT22;1444;49.166;7.312;2024-03-23T08:39:51;8.80;99.90
2873;DHT22;1444;49.166;7.312;2024-03-23T08:42:18;8.70;99.90
2873;DHT22;1444;49.166;7.312;2024-03-23T08:44:44;8.50;99.90
2873;DHT22;1444;49.166;7.312;2024-03-23T08:47:12;8.40;99.90
2873;DHT22;1444;49.166;7.312;2024-03-23T08:49:37;8.40;99.90
2873;DHT22;1444;49.166;7.312;2024-03-23T08:52:04;8.40;99.90
2873;DHT22;1444;49.166;7.312;2024-03-23T08:54:30;8.30;99.90
2873;DHT22;1444;49.166;7.312;2024-03-23T08:56:57;8.30;99.70
2873;DHT22;1444;49.166;7.312;2024-03-23T08:59:23;8.40;99.90
2873;DHT22;1444;49.166;7.312;2024-03-23T09:01:49;8.40;99.80
2873;DHT22;1444;49.166;7.312;2024-03-23T09:04:15;8.50;99.90
2873;DHT22;1444;49.166;7.312;2024-03-23T09:06:42;8.50;99.90
2873;DHT22;1444;49.166;7.312;2024-03-23T09:09:08;8.50;99.90
2873;DHT22;1444;49.166;7.312;2024-03-23T09:11:34;8.50;99.90
2873;DHT22;1444;49.166;7.312;2024-03-23T09:14:01;8.50;99.90
2873;DHT22;1444;49.166;7.312;2024-03-23T09:16:27;8.50;99.90
2873;DHT22;1444;49.166;7.312;2024-03-23T09:18:52;8.50;99.90
2873;DHT22;1444;49.166;7.312;2024-03-23T09:21:19;8.60;99.90
2873;DHT22;1444;49.166;7.312;2024-03-23T09:23:44;8.80;99.90
2873;DHT22;1444;49.166;7.312;2024-03-23T09:26:11;9.00;99.90
2873;DHT22;1444;49.166;7.312;2024-03-23T09:28:36;9.20;99.90
2873;DHT22;1444;49.166;7.312;2024-03-23T09:31:04;9.40;99.90
2873;DHT22;1444;49.166;7.312;2024-03-23T09:33:29;9.30;99.90
2873;DHT22;1444;49.166;7.312;2024-03-23T09:35:56;9.70;99.90
2873;DHT22;1444;49.166;7.312;2024-03-23T09:38:22;9.90;99.90
2873;DHT22;1444;49.166;7.312;2024-03-23T09:40:51;10.10;99.90
2873;DHT22;1444;49.166;7.312;2024-03-23T09:43:18;10.20;99.90
2873;DHT22;1444;49.166;7.312;2024-03-23T09:45:45;10.20;99.90
2873;DHT22;1444;49.166;7.312;2024-03-23T09:48:12;10.50;99.90
2873;DHT22;1444;49.166;7.312;2024-03-23T09:50:39;10.40;98.20
2873;DHT22;1444;49.166;7.312;2024-03-23T09:53:06;10.50;98.40
2873;DHT22;1444;49.166;7.312;2024-03-23T09:55:33;10.70;99.20
2873;DHT22;1444;49.166;7.312;2024-03-23T09:58:00;10.70;97.00
2873;DHT22;1444;49.166;7.312;2024-03-23T10:00:27;10.70;97.30
2873;DHT22;1444;49.166;7.312;2024-03-23T10:02:55;10.90;98.50
2873;DHT22;1444;49.166;7.312;2024-03-23T10:05:22;11.00;99.20
2873;DHT22;1444;49.166;7.312;2024-03-23T10:07:48;11.10;96.10
2873;DHT22;1444;49.166;7.312;2024-03-23T10:10:16;11.10;97.20
2873;DHT22;1444;49.166;7.312;2024-03-23T10:12:44;11.30;96.60
2873;DHT22;1444;49.166;7.312;2024-03-23T10:15:18;11.40;94.70
2873;DHT22;1444;49.166;7.312;2024-03-23T10:17:44;11.50;93.50
2873;DHT22;1444;49.166;7.312;2024-03-23T10:20:11;11.60;93.10
2873;DHT22;1444;49.166;7.312;2024-03-23T10:22:38;11.70;95.20
2873;DHT22;1444;49.166;7.312;2024-03-23T10:25:08;11.70;93.80
2873;DHT22;1444;49.166;7.312;2024-03-23T10:27:34;11.50;92.50
2873;DHT22;1444;49.166;7.312;2024-03-23T10:30:08;11.30;93.20
2873;DHT22;1444;49.166;7.312;2024-03-23T10:32:34;11.30;93.30
2873;DHT22;1444;49.166;7.312;2024-03-23T10:35:14;11.40;91.10
2873;DHT22;1444;49.166;7.312;2024-03-23T10:37:41;11.40;90.60
2873;DHT22;1444;49.166;7.312;2024-03-23T10:40:10;11.70;91.90
2873;DHT22;1444;49.166;7.312;2024-03-23T10:42:37;11.80;90.00
2873;DHT22;1444;49.166;7.312;2024-03-23T10:45:04;11.80;88.70
2873;DHT22;1444;49.166;7.312;2024-03-23T10:47:31;12.10;90.60
2873;DHT22;1444;49.166;7.312;2024-03-23T10:49:58;12.40;90.80
2873;DHT22;1444;49.166;7.312;2024-03-23T10:52:24;12.40;90.10
2873;DHT22;1444;49.166;7.312;2024-03-23T10:54:51;12.40;90.00
2873;DHT22;1444;49.166;7.312;2024-03-23T10:57:20;12.00;90.70
2873;DHT22;1444;49.166;7.312;2024-03-23T10:59:47;11.50;91.50
2873;DHT22;1444;49.166;7.312;2024-03-23T11:02:19;10.80;92.40
2873;DHT22;1444;49.166;7.312;2024-03-23T11:04:45;10.60;93.00
2873;DHT22;1444;49.166;7.312;2024-03-23T11:07:29;10.30;94.00
2873;DHT22;1444;49.166;7.312;2024-03-23T11:09:58;10.10;94.90
2873;DHT22;1444;49.166;7.312;2024-03-23T11:12:30;10.10;96.30
2873;DHT22;1444;49.166;7.312;2024-03-23T11:15:01;10.20;96.80
2873;DHT22;1444;49.166;7.312;2024-03-23T11:17:28;10.30;96.70
2873;DHT22;1444;49.166;7.312;2024-03-23T11:19:55;10.50;97.00
2873;DHT22;1444;49.166;7.312;2024-03-23T11:22:38;10.50;95.90
2873;DHT22;1444;49.166;7.312;2024-03-23T11:25:16;10.60;96.10
2873;DHT22;1444;49.166;7.312;2024-03-23T11:30:15;10.90;97.20
2873;DHT22;1444;49.166;7.312;2024-03-23T11:32:42;10.90;96.40
2873;DHT22;1444;49.166;7.312;2024-03-23T11:35:09;11.00;95.40
2873;DHT22;1444;49.166;7.312;2024-03-23T11:37:36;10.20;94.00
2873;DHT22;1444;49.166;7.312;2024-03-23T11:40:17;10.20;95.40
2873;DHT22;1444;49.166;7.312;2024-03-23T11:42:43;10.20;94.60
2873;DHT22;1444;49.166;7.312;2024-03-23T11:45:11;10.40;95.60
2873;DHT22;1444;49.166;7.312;2024-03-23T11:47:37;10.40;94.60
2873;DHT22;1444;49.166;7.312;2024-03-23T11:50:03;10.50;93.90
2873;DHT22;1444;49.166;7.312;2024-03-23T11:52:29;10.40;94.10
2873;DHT22;1444;49.166;7.312;2024-03-23T11:55:03;10.40;93.60
2873;DHT22;1444;49.166;7.312;2024-03-23T11:57:30;10.00;94.00
2873;DHT22;1444;49.166;7.312;2024-03-23T11:59:56;9.80;94.30
2873;DHT22;1444;49.166;7.312;2024-03-23T12:02:22;9.60;94.40
2873;DHT22;1444;49.166;7.312;2024-03-23T12:04:48;9.50;95.00
2873;DHT22;1444;49.166;7.312;2024-03-23T12:07:15;9.50;94.70
2873;DHT22;1444;49.166;7.312;2024-03-23T12:09:43;9.60;94.90
2873;DHT22;1444;49.166;7.312;2024-03-23T12:12:14;9.70;94.30
2873;DHT22;1444;49.166;7.312;2024-03-23T12:14:42;9.80;94.50
2873;DHT22;1444;49.166;7.312;2024-03-23T12:17:10;9.80;96.10
2873;DHT22;1444;49.166;7.312;2024-03-23T12:19:36;9.90;97.60
2873;DHT22;1444;49.166;7.312;2024-03-23T12:22:03;10.10;96.80
2873;DHT22;1444;49.166;7.312;2024-03-23T12:24:29;10.30;98.20
2873;DHT22;1444;49.166;7.312;2024-03-23T12:26:58;10.60;95.90
2873;DHT22;1444;49.166;7.312;2024-03-23T12:29:27;10.70;96.80
2873;DHT22;1444;49.166;7.312;2024-03-23T12:31:53;11.00;95.50
2873;DHT22;1444;49.166;7.312;2024-03-23T12:34:19;11.10;94.90
2873;DHT22;1444;49.166;7.312;2024-03-23T12:36:45;10.80;93.90
2873;DHT22;1444;49.166;7.312;2024-03-23T12:39:11;10.50;93.50
2873;DHT22;1444;49.166;7.312;2024-03-23T12:41:37;10.30;93.70
2873;DHT22;1444;49.166;7.312;2024-03-23T12:44:03;9.70;94.60
2873;DHT22;1444;49.166;7.312;2024-03-23T12:46:28;9.30;96.20
2873;DHT22;1444;49.166;7.312;2024-03-23T12:48:55;8.90;96.50
2873;DHT22;1444;49.166;7.312;2024-03-23T12:51:21;8.90;96.90
2873;DHT22;1444;49.166;7.312;2024-03-23T12:53:47;9.00;99.50
2873;DHT22;1444;49.166;7.312;2024-03-23T12:56:14;9.10;99.90
2873;DHT22;1444;49.166;7.312;2024-03-23T12:58:41;9.40;99.90
2873;DHT22;1444;49.166;7.312;2024-03-23T13:01:06;9.90;98.10
2873;DHT22;1444;49.166;7.312;2024-03-23T13:03:32;10.00;96.50
2873;DHT22;1444;49.166;7.312;2024-03-23T13:08:26;10.40;95.30
2873;DHT22;1444;49.166;7.312;2024-03-23T13:10:51;10.40;93.80
2873;DHT22;1444;49.166;7.312;2024-03-23T13:15:49;10.60;95.00
2873;DHT22;1444;49.166;7.312;2024-03-23T13:18:15;10.80;95.70
2873;DHT22;1444;49.166;7.312;2024-03-23T13:20:41;10.90;95.70
2873;DHT22;1444;49.166;7.312;2024-03-23T13:23:08;10.90;94.80
2873;DHT22;1444;49.166;7.312;2024-03-23T13:25:34;10.90;94.70
2873;DHT22;1444;49.166;7.312;2024-03-23T13:28:01;10.70;95.20
2873;DHT22;1444;49.166;7.312;2024-03-23T13:30:27;10.60;95.20
2873;DHT22;1444;49.166;7.312;2024-03-23T13:32:54;10.50;95.90
2873;DHT22;1444;49.166;7.312;2024-03-23T13:35:19;10.30;96.50
2873;DHT22;1444;49.166;7.312;2024-03-23T13:37:45;10.40;95.20
2873;DHT22;1444;49.166;7.312;2024-03-23T13:40:12;10.50;94.50
2873;DHT22;1444;49.166;7.312;2024-03-23T13:42:38;10.50;95.60
2873;DHT22;1444;49.166;7.312;2024-03-23T13:45:05;10.60;95.80
2873;DHT22;1444;49.166;7.312;2024-03-23T13:47:31;10.70;95.70
2873;DHT22;1444;49.166;7.312;2024-03-23T13:49:58;10.70;96.00
2873;DHT22;1444;49.166;7.312;2024-03-23T13:52:24;10.70;94.60
2873;DHT22;1444;49.166;7.312;2024-03-23T13:54:52;10.70;94.40
2873;DHT22;1444;49.166;7.312;2024-03-23T13:57:19;10.80;95.10
2873;DHT22;1444;49.166;7.312;2024-03-23T13:59:46;10.80;94.30
2873;DHT22;1444;49.166;7.312;2024-03-23T14:02:12;10.90;94.60
2873;DHT22;1444;49.166;7.312;2024-03-23T14:04:40;11.00;95.20
2873;DHT22;1444;49.166;7.312;2024-03-23T14:07:06;11.00;93.80
2873;DHT22;1444;49.166;7.312;2024-03-23T14:09:32;11.00;93.90
2873;DHT22;1444;49.166;7.312;2024-03-23T14:11:59;11.00;93.00
2873;DHT22;1444;49.166;7.312;2024-03-23T14:14:26;11.10;93.70
2873;DHT22;1444;49.166;7.312;2024-03-23T14:16:52;11.20;91.20
2873;DHT22;1444;49.166;7.312;2024-03-23T14:19:18;11.20;91.40
2873;DHT22;1444;49.166;7.312;2024-03-23T14:21:45;11.50;93.20
2873;DHT22;1444;49.166;7.312;2024-03-23T14:24:11;11.70;92.10
2873;DHT22;1444;49.166;7.312;2024-03-23T14:26:37;11.90;91.20
2873;DHT22;1444;49.166;7.312;2024-03-23T14:29:04;11.80;90.60
2873;DHT22;1444;49.166;7.312;2024-03-23T14:31:31;11.60;89.80
2873;DHT22;1444;49.166;7.312;2024-03-23T14:33:56;11.60;90.70
2873;DHT22;1444;49.166;7.312;2024-03-23T14:36:22;11.40;91.10
2873;DHT22;1444;49.166;7.312;2024-03-23T14:38:50;11.10;91.60
2873;DHT22;1444;49.166;7.312;2024-03-23T14:41:17;10.80;92.20
2873;DHT22;1444;49.166;7.312;2024-03-23T14:43:43;10.70;93.60
2873;DHT22;1444;49.166;7.312;2024-03-23T14:46:11;10.30;93.90
2873;DHT22;1444;49.166;7.312;2024-03-23T14:48:39;10.30;93.90
2873;DHT22;1444;49.166;7.312;2024-03-23T14:51:05;10.30;94.40
2873;DHT22;1444;49.166;7.312;2024-03-23T14:53:32;10.20;94.50
2873;DHT22;1444;49.166;7.312;2024-03-23T14:55:59;10.10;93.60
2873;DHT22;1444;49.166;7.312;2024-03-23T14:58:25;9.80;92.60
2873;DHT22;1444;49.166;7.312;2024-03-23T15:00:51;9.80;92.40
2873;DHT22;1444;49.166;7.312;2024-03-23T15:03:17;9.90;93.50
2873;DHT22;1444;49.166;7.312;2024-03-23T15:05:52;9.90;93.60
2873;DHT22;1444;49.166;7.312;2024-03-23T15:08:18;10.00;92.90
2873;DHT22;1444;49.166;7.312;2024-03-23T15:10:44;10.20;93.30
2873;DHT22;1444;49.166;7.312;2024-03-23T15:13:10;10.30;93.30
2873;DHT22;1444;49.166;7.312;2024-03-23T15:15:38;10.30;93.90
2873;DHT22;1444;49.166;7.312;2024-03-23T15:18:05;10.00;93.90
2873;DHT22;1444;49.166;7.312;2024-03-23T15:20:31;9.90;95.00
2873;DHT22;1444;49.166;7.312;2024-03-23T15:22:57;9.70;94.60
2873;DHT22;1444;49.166;7.312;2024-03-23T15:25:23;9.50;95.60
2873;DHT22;1444;49.166;7.312;2024-03-23T15:27:49;9.40;96.20
2873;DHT22;1444;49.166;7.312;2024-03-23T15:30:16;9.10;96.00
2873;DHT22;1444;49.166;7.312;2024-03-23T15:32:42;9.10;96.90
2873;DHT22;1444;49.166;7.312;2024-03-23T15:35:09;8.90;96.00
2873;DHT22;1444;49.166;7.312;2024-03-23T15:37:35;9.00;96.40
2873;DHT22;1444;49.166;7.312;2024-03-23T15:40:02;8.80;96.10
2873;DHT22;1444;49.166;7.312;2024-03-23T15:42:28;8.90;96.10
2873;DHT22;1444;49.166;7.312;2024-03-23T15:44:54;9.00;96.70
2873;DHT22;1444;49.166;7.312;2024-03-23T15:47:20;8.80;96.10
2873;DHT22;1444;49.166;7.312;2024-03-23T15:49:46;8.80;97.20
2873;DHT22;1444;49.166;7.312;2024-03-23T15:52:12;8.50;97.30
2873;DHT22;1444;49.166;7.312;2024-03-23T15:54:38;8.30;97.50
2873;DHT22;1444;49.166;7.312;2024-03-23T15:57:05;8.30;97.80
2873;DHT22;1444;49.166;7.312;2024-03-23T15:59:32;8.40;98.20
2873;DHT22;1444;49.166;7.312;2024-03-23T16:02:01;8.40;97.90
2873;DHT22;1444;49.166;7.312;2024-03-23T16:04:28;8.50;98.00
2873;DHT22;1444;49.166;7.312;2024-03-23T16:06:54;8.30;97.30
2873;DHT22;1444;49.166;7.312;2024-03-23T16:09:20;8.30;97.50
2873;DHT22;1444;49.166;7.312;2024-03-23T16:11:45;8.30;97.60
2873;DHT22;1444;49.166;7.312;2024-03-23T16:14:12;8.20;97.40
2873;DHT22;1444;49.166;7.312;2024-03-23T16:16:38;8.10;97.10
2873;DHT22;1444;49.166;7.312;2024-03-23T16:19:04;7.90;96.90
2873;DHT22;1444;49.166;7.312;2024-03-23T16:21:30;8.00;97.10
2873;DHT22;1444;49.166;7.312;2024-03-23T16:23:56;8.00;97.20
2873;DHT22;1444;49.166;7.312;2024-03-23T16:26:23;7.90;96.60
2873;DHT22;1444;49.166;7.312;2024-03-23T16:28:49;7.90;96.80
2873;DHT22;1444;49.166;7.312;2024-03-23T16:31:16;7.80;96.40
2873;DHT22;1444;49.166;7.312;2024-03-23T16:33:42;7.90;97.00
2873;DHT22;1444;49.166;7.312;2024-03-23T16:36:10;7.90;96.70
2873;DHT22;1444;49.166;7.312;2024-03-23T16:38:37;7.80;96.70
2873;DHT22;1444;49.166;7.312;2024-03-23T16:41:04;7.70;97.20
2873;DHT22;1444;49.166;7.312;2024-03-23T16:43:31;7.70;97.20
2873;DHT22;1444;49.166;7.312;2024-03-23T16:45:58;7.60;97.10
2873;DHT22;1444;49.166;7.312;2024-03-23T16:48:27;7.70;97.40
2873;DHT22;1444;49.166;7.312;2024-03-23T16:50:56;7.60;97.30
2873;DHT22;1444;49.166;7.312;2024-03-23T16:53:22;7.60;97.40
2873;DHT22;1444;49.166;7.312;2024-03-23T16:55:54;7.30;98.00
2873;DHT22;1444;49.166;7.312;2024-03-23T16:58:20;7.20;97.60
2873;DHT22;1444;49.166;7.312;2024-03-23T17:00:46;7.20;98.00
2873;DHT22;1444;49.166;7.312;2024-03-23T17:03:14;7.20;98.30
2873;DHT22;1444;49.166;7.312;2024-03-23T17:05:40;7.20;98.10
2873;DHT22;1444;49.166;7.312;2024-03-23T17:08:08;7.30;98.10
2873;DHT22;1444;49.166;7.312;2024-03-23T17:10:33;7.40;98.20